This is the latest recevied weather packets stored in our database for station/object KGRR-WX. If no packets are shown the sender has not sent any weather packets the latest 1 day(s).
| Time | Temp. | Humidity | Pressure | Rain* | Wind** | Luminosity | Snow |
|---|---|---|---|---|---|---|---|
| 1777970705 | 12.22° C | 66% | 973.3 hPa | 0 mm | 4.02 m/s, 274° | - | - |
| 1777969821 | 12.22° C | 67% | 972.5 hPa | 0 mm | 3.58 m/s, 270° | - | - |
| 1777968907 | 11.67° C | 67% | 972.5 hPa | 0 mm | 3.58 m/s, 257° | - | - |
| 1777968026 | 11.67° C | 49% | 972.7 hPa | 0 mm | 3.58 m/s, 250° | - | - |
| 1777967107 | 12.22° C | 74% | 972 hPa | 0 mm | 4.02 m/s, 246° | - | - |
| 1777966224 | 12.22° C | 74% | 972 hPa | 0 mm | 4.02 m/s, 251° | - | - |
| 1777965307 | 13.33° C | 74% | 972 hPa | 0 mm | 5.81 m/s, 244° | - | - |
| 1777964426 | 13.33° C | 74% | 972 hPa | 0 mm | 4.47 m/s, 220° | - | - |
| 1777963507 | 13.33° C | 66% | 972.4 hPa | 0 mm | 4.02 m/s, 241° | - | - |
| 1777962615 | 13.89° C | 76% | 971.9 hPa | 0 mm | 4.02 m/s, 236° | - | - |
| 1777961707 | 13.89° C | 76% | 971.9 hPa | 0 mm | 4.02 m/s, 238° | - | - |
| 1777960828 | 14.44° C | 76% | 971.9 hPa | 0 mm | 4.47 m/s, 240° | - | - |
| 1777959907 | 14.44° C | 72% | 973.2 hPa | 0 mm | 4.92 m/s, 242° | - | - |
| 1777959024 | 14.44° C | 62% | 971.7 hPa | 0 mm | 5.81 m/s, 259° | - | - |
| 1777958107 | 15.56° C | 62% | 971.8 hPa | 0 mm | 6.71 m/s, 256° | - | - |
| 1777957219 | 16.11° C | 62% | 971.8 hPa | 0 mm | 6.71 m/s, 252° | - | - |
| 1777956307 | 16.11° C | 63% | 971.6 hPa | 0 mm | 6.71 m/s, 237° | - | - |
| 1777955424 | 16.11° C | 65% | 971.5 hPa | 0 mm | 6.26 m/s, 226° | - | - |
| 1777954507 | 16.67° C | 65% | 971.4 hPa | 0.25 mm | 6.71 m/s, 229° | - | - |
| 1777953627 | 16.11° C | 65% | 971.4 hPa | 0.25 mm | 6.71 m/s, 207° | - | - |
* Rain latest hour (hover to see other rain measurements)
** Current wind speed in m/s (hover to see current wind gust speed)